createdAt,value
2017-12-09T00:00:24.732Z,1.80
2017-12-09T00:02:52.932Z,1.80
2017-12-09T00:05:20.356Z,1.80
2017-12-09T00:07:47.780Z,1.80
2017-12-09T00:10:15.217Z,1.80
2017-12-09T00:12:42.641Z,1.80
2017-12-09T00:15:10.838Z,1.90
2017-12-09T00:17:38.253Z,1.80
2017-12-09T00:20:05.679Z,1.90
2017-12-09T00:22:40.892Z,1.90
2017-12-09T00:25:09.105Z,1.90
2017-12-09T00:27:37.216Z,2.00
2017-12-09T00:30:04.652Z,1.90
2017-12-09T00:32:32.845Z,2.00
2017-12-09T00:35:00.293Z,2.00
2017-12-09T00:37:27.724Z,2.00
2017-12-09T00:39:55.150Z,2.00
2017-12-09T00:44:56.508Z,2.00
2017-12-09T00:47:23.945Z,2.00
2017-12-09T00:49:51.359Z,2.00
2017-12-09T00:52:19.560Z,2.00
2017-12-09T00:54:46.980Z,1.90
2017-12-09T00:57:14.415Z,2.00
2017-12-09T00:59:41.831Z,2.00
2017-12-09T01:02:09.270Z,2.00
2017-12-09T01:04:37.460Z,2.00
2017-12-09T01:07:04.890Z,2.00
2017-12-09T01:09:33.105Z,2.00
2017-12-09T01:12:00.665Z,2.00
2017-12-09T01:14:28.068Z,2.00
2017-12-09T01:17:07.369Z,2.00
2017-12-09T01:19:34.788Z,2.00
2017-12-09T01:22:02.230Z,2.10
2017-12-09T01:24:29.661Z,2.10
2017-12-09T01:26:57.075Z,2.10
2017-12-09T01:29:24.516Z,2.10
2017-12-09T01:31:51.944Z,2.10
2017-12-09T01:34:20.145Z,2.10
2017-12-09T01:36:47.575Z,2.10
2017-12-09T01:39:15.777Z,2.10
2017-12-09T01:41:43.202Z,2.10
2017-12-09T01:44:10.643Z,2.10
2017-12-09T01:46:38.071Z,2.10
2017-12-09T01:49:05.495Z,2.10
2017-12-09T01:51:32.918Z,2.10
2017-12-09T01:54:00.345Z,2.10
2017-12-09T01:56:27.773Z,2.10
2017-12-09T01:58:55.208Z,2.10
2017-12-09T02:01:22.619Z,2.10
2017-12-09T02:03:50.053Z,2.00
2017-12-09T02:06:17.473Z,2.00
2017-12-09T02:08:44.906Z,2.10
2017-12-09T02:11:12.333Z,2.10
2017-12-09T02:13:39.752Z,2.00
2017-12-09T02:16:07.188Z,2.10
2017-12-09T02:18:34.617Z,2.00
2017-12-09T02:21:02.049Z,2.00
2017-12-09T02:23:29.476Z,2.00
2017-12-09T02:25:56.912Z,2.00
2017-12-09T02:28:25.101Z,1.90
2017-12-09T02:30:52.527Z,1.90
2017-12-09T02:33:20.720Z,2.00
2017-12-09T02:35:48.157Z,1.90
2017-12-09T02:38:15.584Z,2.00
2017-12-09T02:40:43.032Z,1.90
2017-12-09T02:43:10.453Z,1.90
2017-12-09T02:45:37.880Z,1.90
2017-12-09T02:48:05.297Z,1.90
2017-12-09T02:50:32.716Z,1.80
2017-12-09T02:53:00.152Z,1.80
2017-12-09T02:55:28.349Z,1.80
2017-12-09T02:57:55.767Z,1.80
2017-12-09T03:00:23.187Z,1.80
2017-12-09T03:02:50.612Z,1.70
2017-12-09T03:05:18.049Z,1.70
2017-12-09T03:07:46.247Z,1.70
2017-12-09T03:10:13.668Z,1.60
2017-12-09T03:12:41.102Z,1.60
2017-12-09T03:15:08.528Z,1.60
2017-12-09T03:17:35.987Z,1.60
2017-12-09T03:20:03.412Z,1.50
2017-12-09T03:22:31.613Z,1.50
2017-12-09T03:24:59.036Z,1.50
2017-12-09T03:27:26.460Z,1.50
2017-12-09T03:29:53.896Z,1.50
2017-12-09T03:32:21.316Z,1.50
2017-12-09T03:34:48.794Z,1.50
2017-12-09T03:37:16.197Z,1.50
2017-12-09T03:39:43.636Z,1.50
2017-12-09T03:42:11.060Z,1.40
2017-12-09T03:44:38.498Z,1.40
2017-12-09T03:47:05.917Z,1.40
2017-12-09T03:49:33.354Z,1.40
2017-12-09T03:52:00.781Z,1.40
2017-12-09T03:54:28.216Z,1.40
2017-12-09T03:56:55.635Z,1.30
2017-12-09T03:59:23.083Z,1.30
2017-12-09T04:01:50.509Z,1.30
2017-12-09T04:04:17.963Z,1.30
2017-12-09T04:06:45.373Z,1.30
2017-12-09T04:09:13.567Z,1.20
2017-12-09T04:11:41.001Z,1.20
2017-12-09T04:14:08.502Z,1.20
2017-12-09T04:16:35.886Z,1.30
2017-12-09T04:19:03.313Z,1.30
2017-12-09T04:21:30.750Z,1.20
2017-12-09T04:23:58.173Z,1.20
2017-12-09T04:26:25.608Z,1.20
2017-12-09T04:28:53.029Z,1.20
2017-12-09T04:31:20.463Z,1.10
2017-12-09T04:33:47.880Z,1.10
2017-12-09T04:36:16.817Z,1.10
2017-12-09T04:38:44.241Z,1.10
2017-12-09T04:41:11.673Z,1.10
2017-12-09T04:43:39.109Z,1.10
2017-12-09T04:46:06.532Z,1.00
2017-12-09T04:48:34.704Z,1.00
2017-12-09T04:51:02.133Z,1.00
2017-12-09T04:53:29.548Z,1.00
2017-12-09T04:55:56.982Z,1.00
2017-12-09T04:58:24.412Z,0.90
2017-12-09T05:00:52.614Z,0.90
2017-12-09T05:03:20.048Z,0.90
2017-12-09T05:05:47.468Z,0.90
2017-12-09T05:08:14.887Z,1.00
2017-12-09T05:10:42.313Z,0.90
2017-12-09T05:13:10.521Z,0.90
2017-12-09T05:15:37.949Z,0.80
2017-12-09T05:18:05.385Z,0.90
2017-12-09T05:20:32.801Z,0.90
2017-12-09T05:23:00.244Z,0.80
2017-12-09T05:25:27.668Z,0.90
2017-12-09T05:27:55.843Z,0.80
2017-12-09T05:30:23.283Z,0.80
2017-12-09T05:32:50.719Z,0.80
2017-12-09T05:35:18.148Z,0.80
2017-12-09T05:37:45.585Z,0.80
2017-12-09T05:40:13.017Z,0.80
2017-12-09T05:42:42.404Z,0.80
2017-12-09T05:45:09.851Z,0.80
2017-12-09T05:47:37.280Z,0.80
2017-12-09T05:50:04.726Z,0.80
2017-12-09T05:52:32.318Z,0.80
2017-12-09T05:54:59.765Z,0.90
2017-12-09T05:57:27.194Z,0.90
2017-12-09T05:59:55.844Z,0.90
2017-12-09T06:02:24.023Z,0.90
2017-12-09T06:04:51.480Z,0.90
2017-12-09T06:07:18.891Z,0.90
2017-12-09T06:09:46.318Z,0.90
2017-12-09T06:12:13.748Z,0.90
2017-12-09T06:14:41.173Z,0.90
2017-12-09T06:17:08.612Z,0.90
2017-12-09T06:19:36.027Z,0.80
2017-12-09T06:22:03.476Z,0.80
2017-12-09T06:24:30.883Z,0.80
2017-12-09T06:26:58.339Z,0.80
2017-12-09T06:29:25.768Z,0.70
2017-12-09T06:31:53.206Z,0.70
2017-12-09T06:34:20.632Z,0.70
2017-12-09T06:36:48.066Z,0.70
2017-12-09T06:39:15.490Z,0.60
2017-12-09T06:41:42.945Z,0.60
2017-12-09T06:44:10.413Z,0.70
2017-12-09T06:46:37.972Z,1.00
2017-12-09T06:49:05.410Z,1.30
2017-12-09T06:51:32.848Z,1.20
2017-12-09T06:54:00.285Z,1.10
2017-12-09T06:56:27.708Z,1.00
2017-12-09T06:58:55.139Z,0.90
2017-12-09T07:01:22.556Z,0.80
2017-12-09T07:03:49.988Z,0.80
2017-12-09T07:06:17.508Z,0.80
2017-12-09T07:08:44.939Z,0.70
2017-12-09T07:11:12.356Z,0.70
2017-12-09T07:13:39.807Z,0.70
2017-12-09T07:16:07.219Z,0.70
2017-12-09T07:18:34.648Z,0.70
2017-12-09T07:21:02.860Z,0.70
2017-12-09T07:23:30.297Z,0.60
2017-12-09T07:25:57.713Z,0.70
2017-12-09T07:28:25.172Z,0.70
2017-12-09T07:30:52.599Z,0.70
2017-12-09T07:33:20.034Z,0.60
2017-12-09T07:35:47.465Z,0.60
2017-12-09T07:38:15.659Z,0.70
2017-12-09T07:40:43.091Z,0.70
2017-12-09T07:43:11.282Z,0.70
2017-12-09T07:45:38.716Z,0.70
2017-12-09T07:48:06.141Z,0.70
2017-12-09T07:50:33.580Z,0.80
2017-12-09T07:53:01.012Z,0.80
2017-12-09T07:55:28.441Z,0.80
2017-12-09T07:57:56.632Z,1.10
2017-12-09T08:00:24.067Z,1.10
2017-12-09T08:02:51.522Z,1.20
2017-12-09T08:05:19.382Z,1.10
2017-12-09T08:07:47.590Z,1.20
2017-12-09T08:10:15.018Z,1.20
2017-12-09T08:12:42.423Z,1.20
2017-12-09T08:15:09.873Z,1.20
2017-12-09T08:17:37.305Z,1.20
2017-12-09T08:20:04.738Z,1.20
2017-12-09T08:22:32.920Z,1.20
2017-12-09T08:25:02.084Z,1.20
2017-12-09T08:27:30.327Z,1.20
2017-12-09T08:29:57.747Z,1.20
2017-12-09T08:32:25.234Z,1.10
2017-12-09T08:34:52.791Z,1.10
2017-12-09T08:37:20.237Z,1.10
2017-12-09T08:39:47.663Z,1.10
2017-12-09T08:42:15.099Z,1.10
2017-12-09T08:44:42.521Z,1.10
2017-12-09T08:47:09.998Z,1.10
2017-12-09T08:49:37.428Z,1.10
2017-12-09T08:52:04.888Z,1.10
2017-12-09T08:54:32.360Z,1.10
2017-12-09T08:57:00.609Z,1.30
2017-12-09T08:59:27.994Z,1.30
2017-12-09T09:01:55.423Z,1.50
2017-12-09T09:04:22.967Z,1.60
2017-12-09T09:06:51.155Z,1.80
2017-12-09T09:09:18.618Z,1.70
2017-12-09T09:11:46.049Z,1.80
2017-12-09T09:14:13.480Z,1.90
2017-12-09T09:16:41.127Z,2.00
2017-12-09T09:19:08.551Z,2.10
2017-12-09T09:21:35.990Z,2.20
2017-12-09T09:24:03.430Z,2.30
2017-12-09T09:26:30.873Z,2.40
2017-12-09T09:28:58.338Z,2.40
2017-12-09T09:31:25.756Z,2.50
2017-12-09T09:33:53.187Z,2.60
2017-12-09T09:36:20.645Z,2.80
2017-12-09T09:38:48.066Z,2.90
2017-12-09T09:41:15.548Z,2.90
2017-12-09T09:43:42.986Z,2.90
2017-12-09T09:46:10.458Z,3.00
2017-12-09T09:48:38.081Z,3.00
2017-12-09T09:51:06.273Z,3.20
2017-12-09T09:53:33.713Z,3.20
2017-12-09T09:56:01.170Z,3.30
2017-12-09T09:58:28.573Z,3.30
2017-12-09T10:00:56.024Z,3.40
2017-12-09T10:03:23.613Z,3.60
2017-12-09T10:05:51.054Z,3.70
2017-12-09T10:08:18.468Z,3.70
2017-12-09T10:10:45.943Z,3.60
2017-12-09T10:13:13.377Z,3.60
2017-12-09T10:15:40.809Z,3.70
2017-12-09T10:18:08.250Z,3.80
2017-12-09T10:20:35.675Z,3.80
2017-12-09T10:23:03.148Z,3.90
2017-12-09T10:25:30.558Z,3.90
2017-12-09T10:27:58.766Z,3.60
2017-12-09T10:30:26.328Z,3.60
2017-12-09T10:32:53.753Z,3.50
2017-12-09T10:35:21.183Z,3.50
2017-12-09T10:37:48.607Z,3.40
2017-12-09T10:40:16.200Z,3.40
2017-12-09T10:42:44.392Z,3.50
2017-12-09T10:45:11.824Z,3.50
2017-12-09T10:47:39.395Z,3.60
2017-12-09T10:50:07.036Z,3.80
2017-12-09T10:52:34.494Z,4.00
2017-12-09T10:55:01.922Z,4.20
2017-12-09T10:57:29.356Z,4.20
2017-12-09T10:59:57.061Z,4.10
2017-12-09T11:02:24.481Z,4.30
2017-12-09T11:04:51.912Z,4.50
2017-12-09T11:07:19.333Z,4.60
2017-12-09T11:09:46.820Z,4.70
2017-12-09T11:12:14.245Z,4.70
2017-12-09T11:14:42.441Z,4.90
2017-12-09T11:17:09.876Z,4.90
2017-12-09T11:19:38.073Z,4.90
2017-12-09T11:22:05.502Z,4.80
2017-12-09T11:24:32.929Z,5.00
2017-12-09T11:27:00.385Z,5.00
2017-12-09T11:29:27.799Z,4.80
2017-12-09T11:31:55.235Z,4.80
2017-12-09T11:34:23.415Z,5.10
2017-12-09T11:36:50.853Z,5.10
2017-12-09T11:39:18.285Z,5.20
2017-12-09T11:41:45.717Z,5.10
2017-12-09T11:44:13.145Z,5.00
2017-12-09T11:46:40.579Z,4.90
2017-12-09T11:49:08.765Z,4.90
2017-12-09T11:51:36.188Z,4.80
2017-12-09T11:54:03.652Z,4.50
2017-12-09T11:56:31.036Z,4.20
2017-12-09T11:58:59.245Z,3.60
2017-12-09T12:01:26.668Z,3.50
2017-12-09T12:03:54.105Z,3.40
2017-12-09T12:06:21.531Z,3.30
2017-12-09T12:08:49.023Z,3.20
2017-12-09T12:11:16.389Z,3.10
2017-12-09T12:13:44.589Z,2.90
2017-12-09T12:16:12.000Z,2.80
2017-12-09T12:18:39.433Z,2.80
2017-12-09T12:21:06.853Z,2.70
2017-12-09T12:23:34.289Z,2.60
2017-12-09T12:26:01.708Z,2.60
2017-12-09T12:28:29.160Z,2.50
2017-12-09T12:30:56.592Z,2.40
2017-12-09T12:33:24.016Z,2.40
2017-12-09T12:35:51.443Z,2.40
2017-12-09T12:38:18.865Z,2.40
2017-12-09T12:40:46.302Z,2.50
2017-12-09T12:43:13.724Z,2.50
2017-12-09T12:45:41.168Z,2.50
2017-12-09T12:48:08.596Z,2.50
2017-12-09T12:50:36.033Z,2.50
2017-12-09T12:53:03.446Z,2.50
2017-12-09T12:55:31.644Z,2.50
2017-12-09T12:57:59.084Z,2.50
2017-12-09T13:00:26.521Z,2.50
2017-12-09T13:02:53.950Z,2.50
2017-12-09T13:05:21.392Z,2.40
2017-12-09T13:07:48.816Z,2.40
2017-12-09T13:10:16.248Z,2.30
2017-12-09T13:12:44.446Z,2.30
2017-12-09T13:15:11.870Z,2.30
2017-12-09T13:17:39.300Z,2.30
2017-12-09T13:20:06.735Z,2.40
2017-12-09T13:22:34.198Z,2.30
2017-12-09T13:25:01.591Z,2.30
2017-12-09T13:27:29.032Z,2.30
2017-12-09T13:29:56.450Z,2.30
2017-12-09T13:32:23.880Z,2.30
2017-12-09T13:34:51.301Z,2.30
2017-12-09T13:37:18.744Z,2.30
2017-12-09T13:39:46.156Z,2.30
2017-12-09T13:42:13.590Z,2.30
2017-12-09T13:44:41.017Z,2.40
2017-12-09T13:47:08.454Z,2.40
2017-12-09T13:49:35.869Z,2.40
2017-12-09T13:52:04.076Z,2.40
2017-12-09T13:54:31.544Z,2.40
2017-12-09T13:56:59.001Z,2.40
2017-12-09T13:59:27.237Z,2.40
2017-12-09T14:01:54.666Z,2.40
2017-12-09T14:04:22.105Z,2.40
2017-12-09T14:06:49.553Z,2.30
2017-12-09T14:09:16.993Z,2.30
2017-12-09T14:11:44.527Z,2.30
2017-12-09T14:14:11.969Z,2.30
2017-12-09T14:16:40.169Z,2.20
2017-12-09T14:19:07.606Z,2.20
2017-12-09T14:21:35.027Z,2.30
2017-12-09T14:24:02.455Z,2.30
2017-12-09T14:26:29.892Z,2.30
2017-12-09T14:28:57.323Z,2.30
2017-12-09T14:31:25.514Z,2.30
2017-12-09T14:33:52.951Z,2.20
2017-12-09T14:36:20.359Z,2.30
2017-12-09T14:38:47.796Z,2.30
2017-12-09T14:41:15.221Z,2.30
2017-12-09T14:43:43.412Z,2.20
2017-12-09T14:46:10.836Z,2.20
2017-12-09T14:48:38.289Z,2.30
2017-12-09T14:51:05.718Z,2.20
2017-12-09T14:53:33.141Z,2.30
2017-12-09T14:56:00.571Z,2.30
2017-12-09T14:58:28.769Z,2.30
2017-12-09T15:00:56.196Z,2.30
2017-12-09T15:03:23.604Z,2.30
2017-12-09T15:05:51.046Z,2.30
2017-12-09T15:08:18.613Z,2.30
2017-12-09T15:10:46.878Z,2.40
2017-12-09T15:13:14.242Z,2.40
2017-12-09T15:15:41.679Z,2.40
2017-12-09T15:18:09.105Z,2.40
2017-12-09T15:20:36.558Z,2.40
2017-12-09T15:23:03.985Z,2.30
2017-12-09T15:25:31.409Z,2.30
2017-12-09T15:27:59.054Z,2.30
2017-12-09T15:30:26.457Z,2.30
2017-12-09T15:32:53.890Z,2.30
2017-12-09T15:35:21.318Z,2.30
2017-12-09T15:37:49.124Z,2.30
2017-12-09T15:40:16.549Z,2.30
2017-12-09T15:42:44.001Z,2.30
2017-12-09T15:45:11.419Z,2.30
2017-12-09T15:47:38.852Z,2.30
2017-12-09T15:50:06.284Z,2.30
2017-12-09T15:52:46.265Z,2.30
2017-12-09T15:55:13.689Z,2.30
2017-12-09T15:57:41.436Z,2.40
2017-12-09T16:00:09.207Z,2.40
2017-12-09T16:02:36.622Z,2.40
2017-12-09T16:05:04.829Z,2.40
2017-12-09T16:07:39.990Z,2.40
2017-12-09T16:10:10.763Z,2.40
2017-12-09T16:12:38.686Z,2.40
2017-12-09T16:15:06.132Z,2.40
2017-12-09T16:17:33.560Z,2.40
2017-12-09T16:20:00.997Z,2.40
2017-12-09T16:22:28.427Z,2.40
2017-12-09T16:24:55.856Z,2.40
2017-12-09T16:27:23.294Z,2.30
2017-12-09T16:29:50.748Z,2.40
2017-12-09T16:32:18.226Z,2.40
2017-12-09T16:34:45.648Z,2.40
2017-12-09T16:37:13.157Z,2.30
2017-12-09T16:39:40.579Z,2.30
2017-12-09T16:42:08.007Z,2.30
2017-12-09T16:44:35.433Z,2.30
2017-12-09T16:47:02.920Z,2.20
2017-12-09T16:49:30.342Z,2.20
2017-12-09T16:51:57.776Z,2.20
2017-12-09T16:54:25.225Z,2.20
2017-12-09T16:56:52.732Z,2.10
2017-12-09T16:59:20.177Z,2.10
2017-12-09T17:01:47.596Z,2.00
2017-12-09T17:04:15.036Z,2.00
2017-12-09T17:06:42.520Z,2.00
2017-12-09T17:09:09.944Z,2.00
2017-12-09T17:11:37.365Z,1.90
2017-12-09T17:14:04.805Z,1.90
2017-12-09T17:16:32.264Z,1.90
2017-12-09T17:18:59.741Z,1.90
2017-12-09T17:21:27.965Z,1.90
2017-12-09T17:23:56.089Z,1.90
2017-12-09T17:26:23.553Z,1.80
2017-12-09T17:28:51.748Z,1.80
2017-12-09T17:31:19.170Z,1.70
2017-12-09T17:33:47.388Z,1.70
2017-12-09T17:36:14.833Z,1.70
2017-12-09T17:38:42.265Z,1.80
2017-12-09T17:41:09.701Z,1.80
2017-12-09T17:43:37.121Z,1.80
2017-12-09T17:46:04.553Z,1.80
2017-12-09T17:48:31.973Z,1.70
2017-12-09T17:50:59.408Z,1.70
2017-12-09T17:53:26.944Z,1.70
2017-12-09T17:55:54.354Z,1.60
2017-12-09T17:58:22.540Z,1.50
2017-12-09T18:00:49.980Z,1.50
2017-12-09T18:03:18.169Z,1.60
2017-12-09T18:05:45.621Z,1.50
2017-12-09T18:08:13.040Z,1.60
2017-12-09T18:10:40.471Z,1.60
2017-12-09T18:13:07.897Z,1.60
2017-12-09T18:15:35.338Z,1.60
2017-12-09T18:18:02.755Z,1.50
2017-12-09T18:20:30.187Z,1.60
2017-12-09T18:22:57.645Z,1.70
2017-12-09T18:25:25.056Z,1.70
2017-12-09T18:27:53.271Z,1.70
2017-12-09T18:30:20.716Z,1.70
2017-12-09T18:32:48.148Z,1.80
2017-12-09T18:35:15.568Z,1.80
2017-12-09T18:37:42.997Z,1.80
2017-12-09T18:40:10.484Z,1.80
2017-12-09T18:42:38.624Z,1.90
2017-12-09T18:45:06.038Z,1.90
2017-12-09T18:47:33.457Z,1.80
2017-12-09T18:50:00.895Z,1.90
2017-12-09T18:52:28.316Z,1.80
2017-12-09T18:54:56.514Z,1.90
2017-12-09T18:57:23.941Z,1.80
2017-12-09T18:59:51.387Z,1.90
2017-12-09T19:02:18.817Z,1.90
2017-12-09T19:04:46.240Z,1.90
2017-12-09T19:07:13.673Z,1.90
2017-12-09T19:09:41.103Z,1.90
2017-12-09T19:12:08.525Z,1.90
2017-12-09T19:14:35.952Z,2.00
2017-12-09T19:17:03.589Z,2.00
2017-12-09T19:19:31.018Z,2.00
2017-12-09T19:21:58.440Z,2.00
2017-12-09T19:24:25.881Z,2.00
2017-12-09T19:26:53.317Z,2.00
2017-12-09T19:29:21.513Z,2.10
2017-12-09T19:31:48.944Z,2.00
2017-12-09T19:34:16.367Z,2.10
2017-12-09T19:36:43.803Z,2.10
2017-12-09T19:39:11.246Z,2.10
2017-12-09T19:41:38.676Z,2.10
2017-12-09T19:44:06.108Z,2.10
2017-12-09T19:46:33.529Z,2.10
2017-12-09T19:49:00.962Z,2.10
2017-12-09T19:51:28.398Z,2.10
2017-12-09T19:53:55.834Z,2.10
2017-12-09T19:56:23.260Z,2.10
2017-12-09T19:58:50.693Z,2.10
2017-12-09T20:01:18.115Z,2.10
2017-12-09T20:03:45.553Z,2.10
2017-12-09T20:06:12.981Z,2.10
2017-12-09T20:08:40.414Z,2.10
2017-12-09T20:11:07.830Z,2.10
2017-12-09T20:13:36.033Z,2.10
2017-12-09T20:16:03.458Z,2.10
2017-12-09T20:18:30.895Z,2.10
2017-12-09T20:20:58.323Z,2.20
2017-12-09T20:23:25.745Z,2.20
2017-12-09T20:25:53.173Z,2.20
2017-12-09T20:28:20.641Z,2.20
2017-12-09T20:30:48.856Z,2.20
2017-12-09T20:33:16.285Z,2.20
2017-12-09T20:35:43.717Z,2.20
2017-12-09T20:38:11.424Z,2.20
2017-12-09T20:40:38.833Z,2.10
2017-12-09T20:43:07.016Z,2.10
2017-12-09T20:45:34.444Z,2.10
2017-12-09T20:48:01.882Z,2.10
2017-12-09T20:50:29.313Z,2.00
2017-12-09T20:52:56.777Z,2.10
2017-12-09T20:55:24.239Z,2.00
2017-12-09T20:57:51.736Z,2.00
2017-12-09T21:00:19.169Z,2.00
2017-12-09T21:02:46.594Z,2.00
2017-12-09T21:05:14.020Z,1.90
2017-12-09T21:07:42.204Z,1.90
2017-12-09T21:10:09.644Z,1.90
2017-12-09T21:12:37.059Z,1.90
2017-12-09T21:15:04.537Z,1.90
2017-12-09T21:17:31.965Z,1.90
2017-12-09T21:19:59.396Z,1.90
2017-12-09T21:22:26.819Z,1.80
2017-12-09T21:24:55.014Z,1.80
2017-12-09T21:27:22.448Z,1.80
2017-12-09T21:29:49.868Z,1.80
2017-12-09T21:32:17.307Z,1.80
2017-12-09T21:34:44.759Z,1.80
2017-12-09T21:37:12.171Z,1.80
2017-12-09T21:39:40.365Z,1.80
2017-12-09T21:42:08.114Z,1.80
2017-12-09T21:44:36.314Z,1.80
2017-12-09T21:47:07.623Z,1.80
2017-12-09T21:49:35.028Z,1.80
2017-12-09T21:52:02.497Z,1.80
2017-12-09T21:54:29.892Z,1.80
2017-12-09T21:56:58.084Z,1.90
2017-12-09T21:59:25.503Z,1.80
2017-12-09T22:01:53.050Z,1.80
2017-12-09T22:04:20.485Z,1.80
2017-12-09T22:06:47.934Z,1.80
2017-12-09T22:09:15.374Z,1.80
2017-12-09T22:11:42.812Z,1.80
2017-12-09T22:14:10.248Z,1.80
2017-12-09T22:16:37.974Z,1.80
2017-12-09T22:19:05.392Z,1.80
2017-12-09T22:21:33.580Z,1.70
2017-12-09T22:24:01.017Z,1.70
2017-12-09T22:26:28.454Z,1.60
2017-12-09T22:28:55.876Z,1.60
2017-12-09T22:31:23.291Z,1.50
2017-12-09T22:33:50.720Z,1.50
2017-12-09T22:36:18.145Z,1.40
2017-12-09T22:38:45.597Z,1.40
2017-12-09T22:41:13.021Z,1.30
2017-12-09T22:43:40.441Z,1.20
2017-12-09T22:46:07.873Z,1.20
2017-12-09T22:48:36.066Z,1.00
2017-12-09T22:51:03.497Z,1.00
2017-12-09T22:53:30.919Z,1.00
2017-12-09T22:55:58.355Z,0.90
2017-12-09T22:58:25.789Z,0.90
2017-12-09T23:00:53.225Z,0.80
2017-12-09T23:03:20.660Z,0.80
2017-12-09T23:05:48.091Z,0.80
2017-12-09T23:08:15.510Z,0.80
2017-12-09T23:10:42.942Z,0.80
2017-12-09T23:13:10.376Z,0.80
2017-12-09T23:15:37.799Z,0.80
2017-12-09T23:18:06.001Z,0.80
2017-12-09T23:20:33.436Z,0.80
2017-12-09T23:23:00.865Z,0.80
2017-12-09T23:25:28.293Z,0.80
2017-12-09T23:27:55.729Z,0.80
2017-12-09T23:30:23.188Z,0.80
2017-12-09T23:32:50.633Z,0.80
2017-12-09T23:35:18.057Z,0.80
2017-12-09T23:37:45.495Z,0.80
2017-12-09T23:40:12.921Z,0.80
2017-12-09T23:42:40.370Z,0.80
2017-12-09T23:45:07.813Z,0.80
2017-12-09T23:47:35.244Z,0.80
2017-12-09T23:50:02.678Z,0.80
2017-12-09T23:52:30.105Z,0.80
2017-12-09T23:54:58.443Z,0.80
2017-12-09T23:57:26.292Z,0.70
2017-12-09T23:59:53.716Z,0.70
